createdAt,value
2023-01-13T00:01:17.012Z,99409.78
2023-01-13T00:03:43.902Z,99421.69
2023-01-13T00:06:16.028Z,99422.66
2023-01-13T00:08:42.673Z,99420.25
2023-01-13T00:11:10.161Z,99426.38
2023-01-13T00:13:40.308Z,99422.19
2023-01-13T00:16:09.696Z,99412.44
2023-01-13T00:18:38.914Z,99415.22
2023-01-13T00:21:17.148Z,99417.97
2023-01-13T00:23:44.543Z,99412.81
2023-01-13T00:26:14.827Z,99405.22
2023-01-13T00:28:41.895Z,99416.19
2023-01-13T00:31:17.205Z,99410.91
2023-01-13T00:33:44.006Z,99405.69
2023-01-13T00:36:13.422Z,99410.16
2023-01-13T00:38:40.198Z,99415.66
2023-01-13T00:41:09.527Z,99412.66
2023-01-13T00:43:37.326Z,99410.16
2023-01-13T00:46:05.759Z,99415.44
2023-01-13T00:48:32.969Z,99409.38
2023-01-13T00:51:05.855Z,99413.38
2023-01-13T00:53:41.311Z,99408.19
2023-01-13T00:56:14.286Z,99402.91
2023-01-13T00:58:42.068Z,99416.47
2023-01-13T01:01:12.051Z,99408.28
2023-01-13T01:03:38.824Z,99416.56
2023-01-13T01:06:08.600Z,99406.63
2023-01-13T01:08:36.054Z,99407.56
2023-01-13T01:11:07.783Z,99410.47
2023-01-13T01:13:34.904Z,99404.44
2023-01-13T01:16:06.915Z,99405.28
2023-01-13T01:18:39.934Z,99400.59
2023-01-13T01:21:06.916Z,99400.34
2023-01-13T01:23:35.012Z,99403.72
2023-01-13T01:26:11.029Z,99400.94
2023-01-13T01:28:37.657Z,99409.47
2023-01-13T01:31:09.322Z,99394.59
2023-01-13T01:33:36.019Z,99397.72
2023-01-13T01:36:03.457Z,99395.31
2023-01-13T01:38:30.045Z,99400.16
2023-01-13T01:40:56.677Z,99388.84
2023-01-13T01:44:02.519Z,99394.16
2023-01-13T01:46:38.033Z,99400.63
2023-01-13T01:49:23.875Z,99386.31
2023-01-13T01:51:56.313Z,99394.97
2023-01-13T01:54:27.679Z,99391.25
2023-01-13T01:56:55.291Z,99382.47
2023-01-13T01:59:22.013Z,99379.63
2023-01-13T02:01:48.767Z,99376.00
2023-01-13T02:04:21.168Z,99373.59
2023-01-13T02:06:49.155Z,99373.25
2023-01-13T02:09:17.220Z,99366.88
2023-01-13T02:12:03.010Z,99377.91
2023-01-13T02:14:30.652Z,99362.41
2023-01-13T02:17:12.581Z,99373.00
2023-01-13T02:19:54.348Z,99362.19
2023-01-13T02:22:23.861Z,99355.81
2023-01-13T02:25:05.598Z,99357.25
2023-01-13T02:27:57.191Z,99358.91
2023-01-13T02:30:58.741Z,99350.88
2023-01-13T02:33:51.282Z,99352.91
2023-01-13T02:36:47.659Z,99362.44
2023-01-13T02:39:22.892Z,99357.72
2023-01-13T02:42:24.053Z,99353.19
2023-01-13T02:45:02.473Z,99341.28
2023-01-13T02:47:32.685Z,99337.44
2023-01-13T02:50:28.984Z,99319.75
2023-01-13T02:53:01.268Z,99331.75
2023-01-13T02:55:41.518Z,99327.19
2023-01-13T02:58:12.070Z,99335.00
2023-01-13T03:00:39.646Z,99331.41
2023-01-13T03:03:06.181Z,99337.06
2023-01-13T03:05:34.549Z,99326.84
2023-01-13T03:08:22.304Z,99338.16
2023-01-13T03:11:04.120Z,99340.66
2023-01-13T03:13:42.633Z,99347.25
2023-01-13T03:16:09.208Z,99344.28
2023-01-13T03:18:41.811Z,99342.09
2023-01-13T03:21:34.345Z,99346.66
2023-01-13T03:24:07.209Z,99342.09
2023-01-13T03:26:43.945Z,99354.09
2023-01-13T03:29:18.894Z,99336.41
2023-01-13T03:31:58.817Z,99340.63
2023-01-13T03:34:33.595Z,99337.00
2023-01-13T03:37:05.705Z,99325.34
2023-01-13T03:39:36.583Z,99315.47
2023-01-13T03:42:11.826Z,99321.97
2023-01-13T03:44:49.442Z,99327.88
2023-01-13T03:47:31.661Z,99303.06
2023-01-13T03:50:01.202Z,99328.97
2023-01-13T03:52:41.320Z,99328.97
2023-01-13T03:55:13.881Z,99328.13
2023-01-13T03:57:59.674Z,99330.63
2023-01-13T04:00:32.380Z,99324.50
2023-01-13T04:03:06.285Z,99316.69
2023-01-13T04:05:39.453Z,99335.81
2023-01-13T04:08:18.035Z,99328.81
2023-01-13T04:11:12.090Z,99326.88
2023-01-13T04:13:41.908Z,99326.31
2023-01-13T04:16:11.312Z,99331.47
2023-01-13T04:18:39.754Z,99323.53
2023-01-13T04:21:07.791Z,99324.88
2023-01-13T04:23:34.812Z,99312.22
2023-01-13T04:26:01.395Z,99321.97
2023-01-13T04:28:27.994Z,99318.00
2023-01-13T04:30:54.592Z,99317.72
2023-01-13T04:33:21.213Z,99330.13
2023-01-13T04:35:48.313Z,99327.72
2023-01-13T04:38:17.444Z,99325.69
2023-01-13T04:40:44.562Z,99324.16
2023-01-13T04:43:11.306Z,99327.72
2023-01-13T04:45:38.248Z,99327.72
2023-01-13T04:48:05.457Z,99324.41
2023-01-13T04:50:32.035Z,99320.66
2023-01-13T04:53:00.365Z,99312.81
2023-01-13T04:55:27.628Z,99324.56
2023-01-13T04:57:54.292Z,99319.78
2023-01-13T05:00:22.897Z,99315.91
2023-01-13T05:02:51.009Z,99327.72
2023-01-13T05:05:18.348Z,99314.00
2023-01-13T05:07:44.875Z,99320.72
2023-01-13T05:10:11.863Z,99306.19
2023-01-13T05:12:57.184Z,99309.69
2023-01-13T05:15:41.987Z,99309.19
2023-01-13T05:18:08.986Z,99309.19
2023-01-13T05:20:35.508Z,99320.25
2023-01-13T05:23:20.382Z,99321.09
2023-01-13T05:25:48.309Z,99308.09
2023-01-13T05:28:15.743Z,99312.78
2023-01-13T05:30:46.035Z,99310.78
2023-01-13T05:33:15.243Z,99313.00
2023-01-13T05:35:43.806Z,99306.88
2023-01-13T05:38:11.201Z,99306.28
2023-01-13T05:40:59.390Z,99303.88
2023-01-13T05:43:26.600Z,99312.94
2023-01-13T05:45:59.036Z,99310.72
2023-01-13T05:48:39.139Z,99312.19
2023-01-13T05:51:08.046Z,99312.00
2023-01-13T05:53:35.304Z,99313.03
2023-01-13T05:56:05.150Z,99312.81
2023-01-13T05:58:31.921Z,99309.91
2023-01-13T06:01:16.704Z,99310.25
2023-01-13T06:03:43.226Z,99312.44
2023-01-13T06:06:09.783Z,99308.13
2023-01-13T06:08:39.303Z,99309.69
2023-01-13T06:11:06.238Z,99304.13
2023-01-13T06:13:32.756Z,99306.31
2023-01-13T06:15:59.676Z,99304.38
2023-01-13T06:18:26.582Z,99306.88
2023-01-13T06:20:53.160Z,99320.50
2023-01-13T06:23:19.740Z,99312.19
2023-01-13T06:26:02.301Z,99310.41
2023-01-13T06:28:28.889Z,99308.59
2023-01-13T06:31:00.168Z,99307.59
2023-01-13T06:33:34.836Z,99312.19
2023-01-13T06:36:06.558Z,99309.19
2023-01-13T06:38:37.488Z,99321.94
2023-01-13T06:41:06.275Z,99311.72
2023-01-13T06:43:33.119Z,99314.81
2023-01-13T06:46:01.475Z,99323.75
2023-01-13T06:48:34.985Z,99309.91
2023-01-13T06:51:02.616Z,99318.84
2023-01-13T06:53:29.160Z,99324.47
2023-01-13T06:55:55.667Z,99322.91
2023-01-13T06:58:22.211Z,99324.56
2023-01-13T07:00:51.363Z,99328.66
2023-01-13T07:03:19.591Z,99331.09
2023-01-13T07:05:52.542Z,99332.47
2023-01-13T07:08:19.665Z,99343.59
2023-01-13T07:10:46.243Z,99345.53
2023-01-13T07:13:31.319Z,99343.00
2023-01-13T07:16:00.735Z,99347.81
2023-01-13T07:18:28.444Z,99351.19
2023-01-13T07:20:56.991Z,99354.78
2023-01-13T07:23:24.304Z,99344.31
2023-01-13T07:25:51.017Z,99355.78
2023-01-13T07:28:17.633Z,99359.72
2023-01-13T07:30:44.311Z,99362.34
2023-01-13T07:33:10.854Z,99356.50
2023-01-13T07:35:37.434Z,99349.59
2023-01-13T07:38:03.967Z,99338.50
2023-01-13T07:40:30.704Z,99340.19
2023-01-13T07:43:20.285Z,99333.34
2023-01-13T07:45:46.954Z,99340.78
2023-01-13T07:48:13.541Z,99336.72
2023-01-13T07:50:41.550Z,99344.16
2023-01-13T07:53:09.252Z,99354.25
2023-01-13T07:55:35.750Z,99348.69
2023-01-13T07:58:02.703Z,99346.19
2023-01-13T08:00:29.346Z,99353.91
2023-01-13T08:02:56.035Z,99350.81
2023-01-13T08:05:22.673Z,99346.69
2023-01-13T08:07:49.218Z,99339.91
2023-01-13T08:10:16.053Z,99339.53
2023-01-13T08:13:01.150Z,99335.09
2023-01-13T08:15:29.657Z,99341.69
2023-01-13T08:17:56.174Z,99337.22
2023-01-13T08:20:22.711Z,99344.44
2023-01-13T08:22:49.258Z,99329.44
2023-01-13T08:25:15.879Z,99340.13
2023-01-13T08:27:42.398Z,99338.09
2023-01-13T08:30:09.689Z,99326.69
2023-01-13T08:32:36.305Z,99331.25
2023-01-13T08:35:02.868Z,99333.34
2023-01-13T08:37:29.453Z,99327.19
2023-01-13T08:39:55.971Z,99339.47
2023-01-13T08:42:22.485Z,99341.47
2023-01-13T08:44:49.017Z,99345.56
2023-01-13T08:47:15.649Z,99337.38
2023-01-13T08:49:42.252Z,99328.31
2023-01-13T08:52:08.861Z,99335.88
2023-01-13T08:54:36.372Z,99324.19
2023-01-13T08:57:03.404Z,99323.25
2023-01-13T08:59:30.093Z,99318.38
2023-01-13T09:01:56.789Z,99328.00
2023-01-13T09:04:25.882Z,99336.34
2023-01-13T09:06:52.423Z,99339.22
2023-01-13T09:09:22.123Z,99342.63
2023-01-13T09:12:09.235Z,99359.81
2023-01-13T09:14:37.681Z,99358.97
2023-01-13T09:17:04.769Z,99360.06
2023-01-13T09:19:31.329Z,99379.34
2023-01-13T09:21:58.012Z,99394.28
2023-01-13T09:24:25.954Z,99444.66
2023-01-13T09:26:52.801Z,99499.19
2023-01-13T09:29:19.773Z,99489.09
2023-01-13T09:31:46.825Z,99494.91
2023-01-13T09:34:34.556Z,99501.38
2023-01-13T09:37:01.429Z,99524.97
2023-01-13T09:39:27.992Z,99504.44
2023-01-13T09:42:16.965Z,99498.06
2023-01-13T09:45:14.769Z,99499.25
2023-01-13T09:48:07.523Z,99501.16
2023-01-13T09:50:49.858Z,99492.31
2023-01-13T09:53:25.463Z,99501.69
2023-01-13T09:55:52.984Z,99508.22
2023-01-13T09:58:19.848Z,99508.66
2023-01-13T10:01:07.617Z,99512.97
2023-01-13T10:03:35.743Z,99510.97
2023-01-13T10:06:13.612Z,99512.06
2023-01-13T10:08:45.666Z,99505.41
2023-01-13T10:11:41.687Z,99516.50
2023-01-13T10:14:14.086Z,99510.06
2023-01-13T10:17:26.001Z,99507.31
2023-01-13T10:19:55.300Z,99511.94
2023-01-13T10:22:34.363Z,99525.47
2023-01-13T10:25:20.572Z,99497.69
2023-01-13T10:27:54.252Z,99489.69
2023-01-13T10:30:31.407Z,99490.09
2023-01-13T10:33:00.333Z,99477.66
2023-01-13T10:35:49.296Z,99469.75
2023-01-13T10:38:19.040Z,99465.63
2023-01-13T10:40:51.350Z,99453.16
2023-01-13T10:43:17.949Z,99451.34
2023-01-13T10:45:55.850Z,99450.91
2023-01-13T10:48:22.435Z,99453.38
2023-01-13T10:50:49.187Z,99443.22
2023-01-13T10:53:23.870Z,99448.63
2023-01-13T10:56:04.762Z,99442.97
2023-01-13T10:58:31.318Z,99435.81
2023-01-13T11:01:06.233Z,99430.41
2023-01-13T11:03:41.421Z,99434.34
2023-01-13T11:06:21.089Z,99429.47
2023-01-13T11:08:50.233Z,99435.44
2023-01-13T11:11:35.059Z,99444.28
2023-01-13T11:14:23.931Z,99446.31
2023-01-13T11:16:55.244Z,99462.84
2023-01-13T11:19:24.700Z,99459.66
2023-01-13T11:22:00.298Z,99467.00
2023-01-13T11:24:51.052Z,99469.06
2023-01-13T11:27:20.485Z,99459.16
2023-01-13T11:29:56.099Z,99469.63
2023-01-13T11:32:24.346Z,99462.25
2023-01-13T11:34:59.357Z,99463.69
2023-01-13T11:37:27.471Z,99451.94
2023-01-13T11:40:06.151Z,99463.34
2023-01-13T11:42:48.416Z,99473.16
2023-01-13T11:45:44.208Z,99477.09
2023-01-13T11:48:23.716Z,99478.28
2023-01-13T11:50:57.113Z,99475.31
2023-01-13T11:53:42.399Z,99477.16
2023-01-13T11:56:08.858Z,99475.38
2023-01-13T11:59:29.039Z,99475.06
2023-01-13T12:02:20.051Z,99473.16
2023-01-13T12:05:05.416Z,99431.38
2023-01-13T12:08:02.641Z,99397.63
2023-01-13T12:10:53.659Z,99459.13
2023-01-13T12:13:34.408Z,99449.06
2023-01-13T12:16:28.627Z,99454.25
2023-01-13T12:19:07.640Z,99454.19
2023-01-13T12:21:39.866Z,99453.94
2023-01-13T12:24:38.121Z,99460.44
2023-01-13T12:27:13.884Z,99463.44
2023-01-13T12:29:40.581Z,99467.38
2023-01-13T12:32:21.029Z,99450.22
2023-01-13T12:34:57.111Z,99459.34
2023-01-13T12:37:26.415Z,99449.63
2023-01-13T12:40:18.851Z,99442.56
2023-01-13T12:43:14.099Z,99446.66
2023-01-13T12:45:40.735Z,99461.19
2023-01-13T12:48:07.322Z,99461.19
2023-01-13T12:50:33.831Z,99458.44
2023-01-13T12:53:21.569Z,99463.63
2023-01-13T12:55:52.126Z,99465.34
2023-01-13T12:58:28.108Z,99457.25
2023-01-13T13:00:58.915Z,99460.75
2023-01-13T13:03:35.715Z,99464.06
2023-01-13T13:06:22.941Z,99459.56
2023-01-13T13:09:20.151Z,99462.06
2023-01-13T13:12:03.833Z,99446.41
2023-01-13T13:14:39.698Z,99459.53
2023-01-13T13:17:28.069Z,99471.53
2023-01-13T13:19:56.439Z,99461.91
2023-01-13T13:22:35.108Z,99464.69
2023-01-13T13:25:04.460Z,99461.81
2023-01-13T13:27:37.104Z,99460.84
2023-01-13T13:30:17.103Z,99473.94
2023-01-13T13:32:56.268Z,99485.25
2023-01-13T13:35:22.918Z,99478.06
2023-01-13T13:38:22.868Z,99475.66
2023-01-13T13:41:08.816Z,99467.84
2023-01-13T13:44:01.846Z,99473.84
2023-01-13T13:46:46.813Z,99474.78
2023-01-13T13:49:21.429Z,99468.72
2023-01-13T13:51:53.582Z,99477.53
2023-01-13T13:54:22.531Z,99497.28
2023-01-13T13:56:50.422Z,99479.00
2023-01-13T13:59:21.490Z,99479.06
2023-01-13T14:02:00.755Z,99482.75
2023-01-13T14:04:30.410Z,99464.88
2023-01-13T14:07:04.925Z,99454.38
2023-01-13T14:09:41.635Z,99444.56
2023-01-13T14:12:20.629Z,99451.88
2023-01-13T14:14:49.085Z,99470.22
2023-01-13T14:17:27.705Z,99459.91
2023-01-13T14:20:07.997Z,99477.31
2023-01-13T14:22:34.715Z,99482.50
2023-01-13T14:25:02.049Z,99492.00
2023-01-13T14:27:30.824Z,99489.56
2023-01-13T14:30:00.307Z,99487.66
2023-01-13T14:32:36.795Z,99510.59
2023-01-13T14:35:07.873Z,99507.09
2023-01-13T14:37:40.928Z,99503.72
2023-01-13T14:40:35.914Z,99506.94
2023-01-13T14:43:10.624Z,99515.31
2023-01-13T14:45:37.242Z,99527.78
2023-01-13T14:48:08.726Z,99528.72
2023-01-13T14:50:35.430Z,99535.28
2023-01-13T14:53:02.200Z,99530.00
2023-01-13T14:55:32.712Z,99539.19
2023-01-13T14:58:23.501Z,99546.59
2023-01-13T15:00:52.530Z,99544.59
2023-01-13T15:03:21.304Z,99545.78
2023-01-13T15:05:50.240Z,99545.88
2023-01-13T15:08:26.331Z,99552.63
2023-01-13T15:11:05.224Z,99543.16
2023-01-13T15:13:38.577Z,99542.91
2023-01-13T15:16:13.678Z,99648.09
2023-01-13T15:18:41.278Z,99622.66
2023-01-13T15:21:09.520Z,99655.75
2023-01-13T15:23:36.941Z,99641.31
2023-01-13T15:26:03.885Z,99619.97
2023-01-13T15:28:32.158Z,99600.50
2023-01-13T15:31:01.661Z,99612.31
2023-01-13T15:33:28.222Z,99635.09
2023-01-13T15:35:54.910Z,99619.88
2023-01-13T15:38:23.576Z,99613.59
2023-01-13T15:40:51.854Z,99611.50
2023-01-13T15:43:39.377Z,99618.66
2023-01-13T15:46:36.092Z,99612.47
2023-01-13T15:49:22.909Z,99617.38
2023-01-13T15:51:49.974Z,99616.28
2023-01-13T15:54:16.550Z,99612.38
2023-01-13T15:56:43.169Z,99621.38
2023-01-13T15:59:17.496Z,99635.03
2023-01-13T16:01:45.746Z,99640.13
2023-01-13T16:04:12.333Z,99632.00
2023-01-13T16:06:38.928Z,99633.69
2023-01-13T16:09:05.748Z,99624.41
2023-01-13T16:11:32.571Z,99619.91
2023-01-13T16:13:59.301Z,99625.16
2023-01-13T16:16:27.939Z,99620.09
2023-01-13T16:18:55.032Z,99609.09
2023-01-13T16:21:22.321Z,99609.00
2023-01-13T16:23:50.388Z,99620.75
2023-01-13T16:26:29.095Z,99618.91
2023-01-13T16:28:57.301Z,99624.16
2023-01-13T16:31:32.982Z,99623.38
2023-01-13T16:34:01.434Z,99628.03
2023-01-13T16:36:30.189Z,99627.41
2023-01-13T16:38:57.165Z,99623.53
2023-01-13T16:41:25.020Z,99622.28
2023-01-13T16:43:51.822Z,99618.53
2023-01-13T16:46:29.295Z,99627.63
2023-01-13T16:49:01.796Z,99628.22
2023-01-13T16:51:28.384Z,99625.22
2023-01-13T16:53:54.932Z,99628.75
2023-01-13T16:56:33.286Z,99631.69
2023-01-13T16:59:05.665Z,99635.09
2023-01-13T17:01:34.554Z,99639.19
2023-01-13T17:04:01.595Z,99645.41
2023-01-13T17:06:31.015Z,99653.41
2023-01-13T17:09:06.352Z,99666.63
2023-01-13T17:11:33.162Z,99680.91
2023-01-13T17:13:59.880Z,99676.03
2023-01-13T17:16:27.002Z,99682.53
2023-01-13T17:18:53.943Z,99688.28
2023-01-13T17:21:20.557Z,99697.28
2023-01-13T17:23:47.148Z,99698.06
2023-01-13T17:26:49.017Z,99694.75
2023-01-13T17:29:22.197Z,99680.00
2023-01-13T17:31:50.484Z,99694.09
2023-01-13T17:34:17.233Z,99687.63
2023-01-13T17:36:43.894Z,99675.88
2023-01-13T17:39:16.911Z,99691.91
2023-01-13T17:41:43.665Z,99685.44
2023-01-13T17:44:13.819Z,99683.66
2023-01-13T17:46:42.092Z,99699.56
2023-01-13T17:49:17.453Z,99710.91
2023-01-13T17:51:47.363Z,99690.53
2023-01-13T17:54:15.254Z,99692.13
2023-01-13T17:56:42.295Z,99716.47
2023-01-13T17:59:11.096Z,99706.97
2023-01-13T18:01:38.121Z,99699.44
2023-01-13T18:04:05.829Z,99718.25
2023-01-13T18:06:32.773Z,99730.47
2023-01-13T18:09:00.182Z,99740.25
2023-01-13T18:11:27.420Z,99756.44
2023-01-13T18:13:56.654Z,99773.66
2023-01-13T18:16:24.354Z,99766.13
2023-01-13T18:18:52.102Z,99783.91
2023-01-13T18:21:37.418Z,99770.06
2023-01-13T18:24:23.291Z,99776.94
2023-01-13T18:27:08.637Z,99766.19
2023-01-13T18:29:35.254Z,99759.41
2023-01-13T18:32:01.778Z,99769.13
2023-01-13T18:34:28.427Z,99765.47
2023-01-13T18:36:54.950Z,99779.78
2023-01-13T18:39:21.505Z,99770.34
2023-01-13T18:42:06.434Z,99775.72
2023-01-13T18:44:32.960Z,99777.25
2023-01-13T18:46:59.487Z,99783.34
2023-01-13T18:49:26.057Z,99763.97
2023-01-13T18:51:52.641Z,99775.13
2023-01-13T18:54:19.727Z,99774.28
2023-01-13T18:56:46.963Z,99768.84
2023-01-13T18:59:13.540Z,99748.09
2023-01-13T19:01:40.369Z,99757.81
2023-01-13T19:04:11.494Z,99763.84
2023-01-13T19:06:40.349Z,99760.81
2023-01-13T19:09:08.736Z,99779.44
2023-01-13T19:11:38.708Z,99772.56
2023-01-13T19:14:05.266Z,99763.09
2023-01-13T19:16:31.765Z,99789.34
2023-01-13T19:18:59.558Z,99762.78
2023-01-13T19:21:26.084Z,99775.13
2023-01-13T19:23:56.900Z,99790.84
2023-01-13T19:26:23.535Z,99785.97
2023-01-13T19:28:50.637Z,99788.38
2023-01-13T19:31:17.228Z,99798.19
2023-01-13T19:33:43.819Z,99788.13
2023-01-13T19:36:10.745Z,99813.34
2023-01-13T19:38:37.870Z,99807.72
2023-01-13T19:41:11.653Z,99802.06
2023-01-13T19:43:56.851Z,99825.78
2023-01-13T19:46:26.324Z,99818.91
2023-01-13T19:48:52.754Z,99813.06
2023-01-13T19:51:19.315Z,99825.31
2023-01-13T19:53:46.887Z,99829.72
2023-01-13T19:56:14.450Z,99822.84
2023-01-13T19:58:42.058Z,99818.53
2023-01-13T20:01:10.209Z,99838.84
2023-01-13T20:03:37.735Z,99833.50
2023-01-13T20:06:08.277Z,99831.88
2023-01-13T20:08:34.817Z,99861.88
2023-01-13T20:11:21.307Z,99843.56
2023-01-13T20:13:49.217Z,99855.78
2023-01-13T20:16:15.777Z,99851.28
2023-01-13T20:18:42.335Z,99855.97
2023-01-13T20:21:09.221Z,99882.59
2023-01-13T20:23:35.887Z,99849.38
2023-01-13T20:26:02.431Z,99870.56
2023-01-13T20:28:28.996Z,99884.75
2023-01-13T20:30:55.833Z,99882.31
2023-01-13T20:33:22.368Z,99891.50
2023-01-13T20:35:57.129Z,99902.25
2023-01-13T20:38:23.733Z,99906.03
2023-01-13T20:41:00.855Z,99900.66
2023-01-13T20:43:27.790Z,99905.63
2023-01-13T20:45:54.441Z,99899.88
2023-01-13T20:48:20.984Z,99896.78
2023-01-13T20:50:53.566Z,99888.03
2023-01-13T20:53:20.104Z,99889.63
2023-01-13T20:55:46.639Z,99894.81
2023-01-13T20:58:13.130Z,99904.03
2023-01-13T21:00:39.664Z,99893.50
2023-01-13T21:03:06.459Z,99888.50
2023-01-13T21:05:35.805Z,99905.59
2023-01-13T21:08:02.694Z,99917.16
2023-01-13T21:10:29.205Z,99922.16
2023-01-13T21:13:14.281Z,99912.44
2023-01-13T21:15:45.872Z,99917.09
2023-01-13T21:18:30.904Z,99911.94
2023-01-13T21:21:11.543Z,99914.38
2023-01-13T21:23:43.116Z,99913.50
2023-01-13T21:26:11.543Z,99931.75
2023-01-13T21:28:38.128Z,99930.94
2023-01-13T21:31:09.326Z,99937.44
2023-01-13T21:33:36.359Z,99937.84
2023-01-13T21:36:07.255Z,99940.13
2023-01-13T21:38:34.050Z,99941.88
2023-01-13T21:41:06.291Z,99925.91
2023-01-13T21:43:51.801Z,99951.50
2023-01-13T21:46:37.521Z,99948.88
2023-01-13T21:49:04.691Z,99960.06
2023-01-13T21:51:31.471Z,99967.41
2023-01-13T21:53:58.051Z,99966.28
2023-01-13T21:56:25.374Z,99975.78
2023-01-13T21:58:52.147Z,99982.38
2023-01-13T22:01:19.377Z,99966.69
2023-01-13T22:04:04.564Z,99976.41
2023-01-13T22:06:31.197Z,99967.94
2023-01-13T22:09:00.980Z,99983.78
2023-01-13T22:11:28.649Z,99980.38
2023-01-13T22:14:08.649Z,99987.53
2023-01-13T22:16:41.779Z,99986.22
2023-01-13T22:19:10.101Z,99993.13
2023-01-13T22:21:36.959Z,99993.97
2023-01-13T22:24:03.564Z,99985.31
2023-01-13T22:26:30.129Z,99998.81
2023-01-13T22:28:56.850Z,99991.94
2023-01-13T22:31:24.445Z,99995.75
2023-01-13T22:33:55.372Z,99992.88
2023-01-13T22:36:24.066Z,100000.16
2023-01-13T22:38:57.162Z,100009.84
2023-01-13T22:41:23.875Z,100010.44
2023-01-13T22:43:50.414Z,100011.47
2023-01-13T22:46:17.413Z,100010.63
2023-01-13T22:48:45.919Z,100024.22
2023-01-13T22:51:16.911Z,100011.03
2023-01-13T22:53:43.632Z,100017.75
2023-01-13T22:56:16.605Z,100013.66
2023-01-13T22:58:43.939Z,100007.91
2023-01-13T23:01:16.884Z,100023.06
2023-01-13T23:03:47.622Z,100023.75
2023-01-13T23:06:15.007Z,100023.41
2023-01-13T23:08:41.705Z,100018.69
2023-01-13T23:11:15.440Z,100030.00
2023-01-13T23:13:43.270Z,100037.91
2023-01-13T23:16:13.009Z,100013.53
2023-01-13T23:18:42.566Z,100041.75
2023-01-13T23:21:12.467Z,100046.16
2023-01-13T23:23:39.749Z,100041.25
2023-01-13T23:26:07.394Z,100045.84
2023-01-13T23:28:35.302Z,100039.38
2023-01-13T23:31:10.453Z,100034.13
2023-01-13T23:33:41.354Z,100040.00
2023-01-13T23:36:12.830Z,100047.38
2023-01-13T23:38:40.323Z,100042.63
2023-01-13T23:41:09.647Z,100048.16
2023-01-13T23:43:36.239Z,100047.63
2023-01-13T23:46:07.623Z,100050.44
2023-01-13T23:48:34.332Z,100058.09
2023-01-13T23:51:02.872Z,100064.63
2023-01-13T23:53:40.407Z,100061.81
2023-01-13T23:56:10.676Z,100062.66
2023-01-13T23:58:37.292Z,100060.81
